UAL397 SAEZ-KMIA
Flight info
| Callsign | UAL397 |
|---|---|
| Flight time | N/A |
| Altitude | 34000 |
| Route | BIVA1J BIVAM UW8 PAR UL417 LENAX UL795 ALTIB UM779 ZEUSS VIICE2 |
| Aircraft | B772/H-VGDW/C |
Departure
| Time | 2026-04-30 17:53 |
|---|---|
| Airport | Ezeiza International Airport - Ministro Pistarini (SAEZ) |
Arrival
| Time | N/A |
|---|---|
| Airport | Miami International Airport (KMIA) |
| Time | Latitude | Longitude | Altitude | Speed | Heading |
|---|---|---|---|---|---|
| 2026-04-30 17:39 | -34.81690 | -58.54292 | 81 ft | 0 kts | 13° |
| 2026-04-30 17:41 | -34.81742 | -58.54321 | 81 ft | 2 kts | 49° |
| 2026-04-30 17:42 | -34.81757 | -58.54352 | 80 ft | 2 kts | 71° |
| 2026-04-30 17:42 | -34.81762 | -58.54396 | 80 ft | 0 kts | 99° |
| 2026-04-30 17:48 | -34.81747 | -58.54388 | 80 ft | 1 kts | 330° |
| 2026-04-30 17:48 | -34.81757 | -58.54554 | 78 ft | 12 kts | 261° |
| 2026-04-30 17:49 | -34.81710 | -58.55151 | 73 ft | 19 kts | 283° |
| 2026-04-30 17:50 | -34.81900 | -58.55264 | 72 ft | 13 kts | 136° |
| 2026-04-30 17:51 | -34.81955 | -58.55069 | 73 ft | 41 kts | 102° |
| 2026-04-30 17:52 | -34.82563 | -58.51681 | 445 ft | 204 kts | 101° |
| 2026-04-30 17:53 | -34.87857 | -58.46336 | 2704 ft | 223 kts | 194° |
| 2026-04-30 17:54 | -34.88913 | -58.52158 | 3324 ft | 238 kts | 330° |
| 2026-04-30 17:55 | -34.82598 | -58.55232 | 5431 ft | 249 kts | 339° |
| 2026-04-30 17:56 | -34.75965 | -58.58313 | 7524 ft | 259 kts | 338° |
| 2026-04-30 17:57 | -34.70842 | -58.60687 | 9076 ft | 264 kts | 338° |
| 2026-04-30 17:58 | -34.65602 | -58.63113 | 10401 ft | 278 kts | 337° |
| 2026-04-30 17:59 | -34.57540 | -58.66850 | 11187 ft | 338 kts | 337° |
| 2026-04-30 18:00 | -34.48126 | -58.71196 | 12802 ft | 372 kts | 336° |
| 2026-04-30 18:00 | -34.40717 | -58.74606 | 14487 ft | 380 kts | 336° |
| 2026-04-30 18:01 | -34.35757 | -58.76885 | 15544 ft | 385 kts | 335° |
| 2026-04-30 18:02 | -34.28155 | -58.80374 | 17065 ft | 392 kts | 335° |
| 2026-04-30 18:02 | -34.20421 | -58.83917 | 18471 ft | 399 kts | 334° |
| 2026-04-30 18:03 | -34.12629 | -58.87479 | 19877 ft | 402 kts | 334° |
| 2026-04-30 18:04 | -34.04734 | -58.91082 | 21097 ft | 407 kts | 334° |
| 2026-04-30 18:05 | -33.94326 | -58.96568 | 22482 ft | 409 kts | 324° |
| 2026-04-30 18:06 | -33.84613 | -59.03688 | 23940 ft | 413 kts | 324° |
| 2026-04-30 18:07 | -33.74638 | -59.10966 | 25521 ft | 422 kts | 324° |
| 2026-04-30 18:08 | -33.67060 | -59.16479 | 26616 ft | 430 kts | 324° |
| 2026-04-30 18:09 | -33.56707 | -59.23991 | 28058 ft | 439 kts | 324° |
| 2026-04-30 18:10 | -33.46162 | -59.31618 | 29516 ft | 445 kts | 324° |
| 2026-04-30 18:11 | -33.35669 | -59.39184 | 31417 ft | 435 kts | 324° |
| 2026-04-30 18:11 | -33.27867 | -59.44799 | 32440 ft | 432 kts | 324° |
| 2026-04-30 18:12 | -33.20171 | -59.50325 | 33356 ft | 428 kts | 324° |
| 2026-04-30 18:13 | -33.15075 | -59.53979 | 33842 ft | 427 kts | 324° |
| 2026-04-30 18:13 | -33.08257 | -59.58859 | 33943 ft | 429 kts | 324° |
| 2026-04-30 18:14 | -33.02241 | -59.63159 | 33943 ft | 434 kts | 324° |
| 2026-04-30 18:15 | -32.86494 | -59.74377 | 33958 ft | 446 kts | 326° |
| 2026-04-30 18:16 | -32.75727 | -59.82020 | 33958 ft | 448 kts | 326° |
| 2026-04-30 18:17 | -32.70372 | -59.85812 | 33954 ft | 448 kts | 326° |
| 2026-04-30 18:18 | -32.62287 | -59.91529 | 33952 ft | 448 kts | 325° |
| 2026-04-30 18:18 | -32.56914 | -59.95321 | 33948 ft | 447 kts | 325° |
| 2026-04-30 18:19 | -32.51583 | -59.99079 | 33951 ft | 448 kts | 326° |
| 2026-04-30 18:19 | -32.46204 | -60.02866 | 33946 ft | 447 kts | 326° |
| 2026-04-30 18:20 | -32.40858 | -60.06623 | 33948 ft | 446 kts | 326° |
| 2026-04-30 18:20 | -32.35503 | -60.10383 | 33947 ft | 448 kts | 326° |
| 2026-04-30 18:21 | -32.30114 | -60.14160 | 33947 ft | 447 kts | 326° |
| 2026-04-30 18:21 | -32.24784 | -60.17891 | 33945 ft | 447 kts | 326° |
| 2026-04-30 18:22 | -32.19424 | -60.21637 | 33946 ft | 446 kts | 326° |
| 2026-04-30 18:22 | -32.11361 | -60.27263 | 33941 ft | 445 kts | 326° |
| 2026-04-30 18:23 | -32.05997 | -60.31000 | 33950 ft | 446 kts | 326° |
| 2026-04-30 18:23 | -32.00633 | -60.34732 | 33946 ft | 446 kts | 326° |
| 2026-04-30 18:24 | -31.92620 | -60.40296 | 33956 ft | 445 kts | 326° |
| 2026-04-30 18:25 | -31.87240 | -60.44026 | 33963 ft | 446 kts | 326° |
| 2026-04-30 18:25 | -31.79096 | -60.49145 | 33967 ft | 451 kts | 335° |
| 2026-04-30 18:26 | -31.70262 | -60.52841 | 33966 ft | 452 kts | 336° |
| 2026-04-30 18:27 | -31.61303 | -60.56553 | 33964 ft | 453 kts | 336° |
| 2026-04-30 18:28 | -31.52311 | -60.60269 | 33948 ft | 453 kts | 336° |
| 2026-04-30 18:28 | -31.43327 | -60.63974 | 33940 ft | 453 kts | 336° |
| 2026-04-30 18:29 | -31.31350 | -60.68901 | 33947 ft | 456 kts | 336° |
| 2026-04-30 18:30 | -31.19321 | -60.73836 | 33948 ft | 455 kts | 336° |
| 2026-04-30 18:31 | -31.10305 | -60.77526 | 33946 ft | 456 kts | 336° |
| 2026-04-30 18:32 | -31.01285 | -60.81210 | 33947 ft | 457 kts | 336° |
| 2026-04-30 18:33 | -30.92223 | -60.84904 | 33941 ft | 457 kts | 336° |
| 2026-04-30 18:33 | -30.83193 | -60.88578 | 33948 ft | 456 kts | 336° |
| 2026-04-30 18:34 | -30.74164 | -60.92244 | 33949 ft | 458 kts | 336° |
| 2026-04-30 18:35 | -30.68111 | -60.94697 | 33942 ft | 458 kts | 336° |
| 2026-04-30 18:35 | -30.62092 | -60.97134 | 33945 ft | 458 kts | 336° |